createdAt,value
2022-08-31T00:00:36.600Z,4.30
2022-08-31T00:04:38.651Z,4.13
2022-08-31T00:08:40.519Z,4.03
2022-08-31T00:12:43.074Z,3.70
2022-08-31T00:16:45.784Z,3.63
2022-08-31T00:20:48.055Z,4.10
2022-08-31T00:24:50.023Z,4.20
2022-08-31T00:28:52.240Z,4.13
2022-08-31T00:32:58.123Z,4.63
2022-08-31T00:37:01.200Z,4.63
2022-08-31T00:41:03.298Z,3.70
2022-08-31T00:45:06.034Z,4.50
2022-08-31T00:49:17.838Z,4.10
2022-08-31T00:53:19.642Z,4.37
2022-08-31T00:57:24.600Z,4.17
2022-08-31T01:01:35.992Z,4.47
2022-08-31T01:05:38.139Z,5.17
2022-08-31T01:09:45.192Z,4.20
2022-08-31T01:13:57.982Z,4.60
2022-08-31T01:18:03.709Z,4.00
2022-08-31T01:22:30.297Z,4.60
2022-08-31T01:26:32.216Z,4.50
2022-08-31T01:30:34.448Z,4.70
2022-08-31T01:34:36.285Z,4.63
2022-08-31T01:38:38.213Z,5.03
2022-08-31T01:42:40.058Z,4.30
2022-08-31T01:46:42.955Z,3.83
2022-08-31T01:50:44.794Z,4.07
2022-08-31T01:54:46.758Z,4.00
2022-08-31T01:58:48.799Z,4.13
2022-08-31T02:03:07.962Z,3.80
2022-08-31T02:07:16.189Z,4.03
2022-08-31T02:11:17.958Z,3.90
2022-08-31T02:15:26.297Z,3.70
2022-08-31T02:19:34.174Z,4.67
2022-08-31T02:23:35.994Z,4.20
2022-08-31T02:27:38.050Z,3.97
2022-08-31T02:31:39.946Z,4.80
2022-08-31T02:35:42.617Z,4.30
2022-08-31T02:39:44.710Z,4.10
2022-08-31T02:43:46.568Z,4.30
2022-08-31T02:47:48.499Z,4.57
2022-08-31T02:51:50.396Z,3.90
2022-08-31T02:55:52.197Z,3.90
2022-08-31T02:59:53.955Z,4.67
2022-08-31T03:03:55.754Z,4.30
2022-08-31T03:07:57.537Z,4.43
2022-08-31T03:12:00.155Z,3.70
2022-08-31T03:16:02.425Z,3.83
2022-08-31T03:20:06.075Z,3.90
2022-08-31T03:24:07.979Z,4.17
2022-08-31T03:28:09.722Z,4.23
2022-08-31T03:32:11.598Z,4.33
2022-08-31T03:36:16.029Z,4.20
2022-08-31T03:40:17.915Z,3.70
2022-08-31T03:44:23.309Z,4.27
2022-08-31T03:48:25.190Z,3.80
2022-08-31T03:52:27.349Z,4.33
2022-08-31T03:56:29.158Z,4.00
2022-08-31T04:00:31.275Z,3.80
2022-08-31T04:04:35.377Z,3.97
2022-08-31T04:08:37.704Z,4.17
2022-08-31T04:12:39.669Z,4.50
2022-08-31T04:16:42.443Z,4.20
2022-08-31T04:20:44.276Z,4.07
2022-08-31T04:24:46.152Z,4.13
2022-08-31T04:28:48.048Z,3.40
2022-08-31T04:32:50.687Z,3.97
2022-08-31T04:36:52.487Z,4.33
2022-08-31T04:40:54.302Z,4.37
2022-08-31T04:44:56.558Z,4.17
2022-08-31T04:49:00.528Z,4.60
2022-08-31T04:53:04.896Z,3.87
2022-08-31T04:57:06.912Z,4.87
2022-08-31T05:01:10.816Z,3.80
2022-08-31T05:05:12.821Z,3.90
2022-08-31T05:09:20.479Z,4.73
2022-08-31T05:13:24.767Z,5.30
2022-08-31T05:17:27.108Z,4.93
2022-08-31T05:21:35.209Z,4.60
2022-08-31T05:25:40.399Z,4.60
2022-08-31T05:29:42.668Z,4.70
2022-08-31T05:33:44.471Z,4.80
2022-08-31T05:37:46.364Z,4.97
2022-08-31T05:41:48.541Z,5.30
2022-08-31T05:45:50.373Z,4.60
2022-08-31T05:49:52.161Z,6.67
2022-08-31T05:53:53.928Z,4.57
2022-08-31T05:57:55.859Z,5.87
2022-08-31T06:01:58.149Z,5.13
2022-08-31T06:06:00.097Z,4.90
2022-08-31T06:10:03.636Z,5.57
2022-08-31T06:14:06.068Z,5.43
2022-08-31T06:18:08.052Z,5.33
2022-08-31T06:22:10.037Z,5.90
2022-08-31T06:26:15.637Z,5.70
2022-08-31T06:30:19.431Z,5.60
2022-08-31T06:34:21.366Z,5.87
2022-08-31T06:38:23.138Z,5.80
2022-08-31T06:42:25.103Z,5.50
2022-08-31T06:46:27.059Z,5.50
2022-08-31T06:50:29.058Z,5.50
2022-08-31T06:54:31.069Z,5.20
2022-08-31T06:58:33.080Z,5.57
2022-08-31T07:02:35.000Z,4.83
2022-08-31T07:06:42.316Z,5.57
2022-08-31T07:10:44.225Z,6.27
2022-08-31T07:14:50.392Z,5.73
2022-08-31T07:19:00.210Z,5.80
2022-08-31T07:23:02.086Z,6.23
2022-08-31T07:27:19.032Z,5.53
2022-08-31T07:31:27.096Z,5.43
2022-08-31T07:35:31.755Z,5.33
2022-08-31T07:39:52.450Z,5.60
2022-08-31T07:43:57.370Z,4.33
2022-08-31T07:48:00.493Z,4.83
2022-08-31T07:52:03.528Z,3.93
2022-08-31T07:56:05.642Z,4.57
2022-08-31T08:00:10.421Z,4.83
2022-08-31T08:04:25.245Z,3.77
2022-08-31T08:08:27.042Z,4.73
2022-08-31T08:12:29.064Z,4.73
2022-08-31T08:16:31.418Z,4.47
2022-08-31T08:20:37.801Z,4.80
2022-08-31T08:24:41.203Z,4.00
2022-08-31T08:28:43.006Z,4.60
2022-08-31T08:32:44.809Z,4.20
2022-08-31T08:36:46.861Z,4.57
2022-08-31T08:40:49.732Z,4.40
2022-08-31T08:44:51.638Z,4.47
2022-08-31T08:48:55.618Z,4.33
2022-08-31T08:52:58.966Z,3.80
2022-08-31T08:57:01.515Z,3.97
2022-08-31T09:01:04.024Z,3.63
2022-08-31T09:05:25.122Z,3.67
2022-08-31T09:09:42.776Z,3.90
2022-08-31T09:14:19.301Z,3.40
2022-08-31T09:18:34.722Z,3.53
2022-08-31T09:22:48.621Z,3.20
2022-08-31T09:27:19.561Z,3.53
2022-08-31T09:31:42.220Z,3.30
2022-08-31T09:35:44.293Z,3.70
2022-08-31T09:39:48.721Z,3.20
2022-08-31T09:43:50.689Z,3.30
2022-08-31T09:47:53.019Z,2.73
2022-08-31T09:52:46.270Z,3.20
2022-08-31T09:56:59.997Z,3.00
2022-08-31T10:01:19.124Z,3.20
2022-08-31T10:05:33.246Z,2.87
2022-08-31T10:09:39.303Z,3.60
2022-08-31T10:13:58.793Z,3.57
2022-08-31T10:18:16.827Z,3.40
2022-08-31T10:22:40.516Z,3.00
2022-08-31T10:26:56.385Z,3.80
2022-08-31T10:31:09.657Z,3.30
2022-08-31T10:35:37.459Z,3.03
2022-08-31T10:39:47.687Z,3.07
2022-08-31T10:44:16.999Z,2.67
2022-08-31T10:48:24.774Z,2.37
2022-08-31T10:52:35.017Z,2.30
2022-08-31T10:57:08.985Z,2.60
2022-08-31T11:01:22.959Z,2.53
2022-08-31T11:05:42.484Z,2.97
2022-08-31T11:10:08.671Z,2.63
2022-08-31T11:14:43.977Z,2.00
2022-08-31T11:19:20.482Z,2.17
2022-08-31T11:24:08.216Z,2.10
2022-08-31T11:28:52.108Z,2.73
2022-08-31T11:33:00.339Z,2.40
2022-08-31T11:37:04.986Z,1.80
2022-08-31T11:41:11.231Z,1.87
2022-08-31T11:45:33.029Z,1.60
2022-08-31T11:49:40.780Z,2.10
2022-08-31T11:53:44.375Z,1.60
2022-08-31T11:58:10.162Z,1.70
2022-08-31T12:02:21.483Z,1.60
2022-08-31T12:06:29.473Z,1.50
2022-08-31T12:10:44.779Z,1.57
2022-08-31T12:15:00.999Z,1.50
2022-08-31T12:19:44.409Z,1.40
2022-08-31T12:24:40.132Z,1.80
2022-08-31T12:29:51.514Z,1.90
2022-08-31T12:34:13.886Z,2.13
2022-08-31T12:38:27.792Z,2.20
2022-08-31T12:42:31.413Z,2.10
2022-08-31T12:46:57.799Z,1.90
2022-08-31T12:51:22.163Z,1.60
2022-08-31T12:56:02.090Z,1.50
2022-08-31T13:00:26.300Z,1.53
2022-08-31T13:04:28.310Z,1.53
2022-08-31T13:08:36.536Z,1.30
2022-08-31T13:12:38.587Z,1.40
2022-08-31T13:16:51.477Z,1.50
2022-08-31T13:20:58.917Z,1.40
2022-08-31T13:25:37.551Z,1.27
2022-08-31T13:29:46.370Z,1.50
2022-08-31T13:33:48.470Z,1.60
2022-08-31T13:38:10.326Z,1.60
2022-08-31T13:42:34.145Z,1.90
2022-08-31T13:47:00.296Z,1.70
2022-08-31T13:51:07.361Z,1.90
2022-08-31T13:55:12.901Z,1.90
2022-08-31T13:59:24.606Z,1.70
2022-08-31T14:03:35.464Z,2.20
2022-08-31T14:07:41.539Z,1.93
2022-08-31T14:12:05.336Z,1.77
2022-08-31T14:16:38.982Z,1.90
2022-08-31T14:21:19.431Z,1.77
2022-08-31T14:25:20.016Z,1.70
2022-08-31T14:29:22.279Z,2.00
2022-08-31T14:33:25.751Z,2.70
2022-08-31T14:37:30.601Z,2.00
2022-08-31T14:41:35.397Z,1.73
2022-08-31T14:45:37.669Z,2.17
2022-08-31T14:49:41.178Z,2.03
2022-08-31T14:53:43.047Z,1.70
2022-08-31T14:57:45.649Z,1.80
2022-08-31T15:01:48.445Z,1.77
2022-08-31T15:05:52.538Z,1.70
2022-08-31T15:09:54.325Z,2.00
2022-08-31T15:13:58.086Z,2.00
2022-08-31T15:18:09.875Z,1.80
2022-08-31T15:22:11.744Z,1.90
2022-08-31T15:26:17.926Z,1.77
2022-08-31T15:30:20.288Z,2.03
2022-08-31T15:34:24.803Z,1.80
2022-08-31T15:38:26.700Z,1.90
2022-08-31T15:42:29.609Z,1.87
2022-08-31T15:46:49.953Z,1.80
2022-08-31T15:50:57.612Z,1.80
2022-08-31T15:54:59.601Z,1.90
2022-08-31T15:59:01.820Z,1.90
2022-08-31T16:03:04.179Z,1.83
2022-08-31T16:07:09.405Z,1.70
2022-08-31T16:11:14.003Z,1.80
2022-08-31T16:15:25.113Z,1.90
2022-08-31T16:19:35.246Z,1.60
2022-08-31T16:23:37.722Z,1.70
2022-08-31T16:27:41.285Z,1.83
2022-08-31T16:31:43.800Z,1.90
2022-08-31T16:35:46.057Z,1.50
2022-08-31T16:39:47.943Z,1.90
2022-08-31T16:44:09.511Z,1.80
2022-08-31T16:48:30.893Z,1.67
2022-08-31T16:52:33.061Z,1.63
2022-08-31T16:56:39.498Z,1.70
2022-08-31T17:00:44.111Z,1.53
2022-08-31T17:04:54.431Z,1.73
2022-08-31T17:09:03.274Z,1.73
2022-08-31T17:13:08.804Z,1.63
2022-08-31T17:17:15.725Z,1.50
2022-08-31T17:21:20.060Z,1.97
2022-08-31T17:25:25.085Z,1.53
2022-08-31T17:29:43.738Z,1.50
2022-08-31T17:33:45.934Z,1.60
2022-08-31T17:37:48.990Z,1.50
2022-08-31T17:41:51.655Z,1.80
2022-08-31T17:45:53.511Z,1.90
2022-08-31T17:49:57.641Z,1.83
2022-08-31T17:54:13.626Z,1.60
2022-08-31T17:58:15.565Z,1.77
2022-08-31T18:02:32.657Z,1.60
2022-08-31T18:06:35.172Z,1.70
2022-08-31T18:10:39.144Z,1.63
2022-08-31T18:14:41.730Z,1.70
2022-08-31T18:18:48.933Z,1.73
2022-08-31T18:22:52.586Z,1.90
2022-08-31T18:26:56.777Z,1.90
2022-08-31T18:30:59.356Z,2.10
2022-08-31T18:35:01.490Z,2.00
2022-08-31T18:39:03.687Z,2.23
2022-08-31T18:43:24.250Z,2.10
2022-08-31T18:47:30.775Z,1.90
2022-08-31T18:51:37.935Z,2.17
2022-08-31T18:55:43.511Z,3.03
2022-08-31T18:59:48.028Z,2.40
2022-08-31T19:03:50.396Z,2.70
2022-08-31T19:07:54.931Z,2.40
2022-08-31T19:12:02.368Z,2.30
2022-08-31T19:16:36.187Z,2.37
2022-08-31T19:20:38.325Z,2.50
2022-08-31T19:24:43.422Z,2.10
2022-08-31T19:28:51.299Z,2.47
2022-08-31T19:32:56.678Z,2.27
2022-08-31T19:37:40.496Z,2.30
2022-08-31T19:41:49.312Z,2.27
2022-08-31T19:45:55.560Z,2.57
2022-08-31T19:49:57.752Z,3.07
2022-08-31T19:54:03.561Z,3.20
2022-08-31T19:58:05.597Z,3.00
2022-08-31T20:02:08.985Z,3.37
2022-08-31T20:06:13.625Z,3.50
2022-08-31T20:10:15.613Z,3.40
2022-08-31T20:14:18.252Z,3.30
2022-08-31T20:18:23.194Z,4.37
2022-08-31T20:22:29.699Z,3.90
2022-08-31T20:26:38.313Z,3.63
2022-08-31T20:30:49.879Z,3.30
2022-08-31T20:34:59.198Z,3.13
2022-08-31T20:39:12.434Z,3.07
2022-08-31T20:43:14.510Z,2.70
2022-08-31T20:47:34.595Z,2.80
2022-08-31T20:51:40.859Z,2.80
2022-08-31T20:55:43.261Z,2.57
2022-08-31T20:59:45.219Z,3.10
2022-08-31T21:03:48.340Z,2.70
2022-08-31T21:07:52.386Z,3.40
2022-08-31T21:11:56.024Z,3.10
2022-08-31T21:15:59.642Z,3.30
2022-08-31T21:20:04.120Z,3.73
2022-08-31T21:24:06.171Z,3.57
2022-08-31T21:28:09.177Z,3.40
2022-08-31T21:32:11.481Z,3.50
2022-08-31T21:36:15.210Z,4.17
2022-08-31T21:40:18.724Z,3.07
2022-08-31T21:44:24.502Z,3.90
2022-08-31T21:48:26.502Z,3.67
2022-08-31T21:52:28.567Z,3.30
2022-08-31T21:56:31.868Z,3.77
2022-08-31T22:00:35.057Z,3.20
2022-08-31T22:04:40.834Z,3.60
2022-08-31T22:08:42.677Z,3.77
2022-08-31T22:12:44.686Z,3.37
2022-08-31T22:16:47.378Z,3.43
2022-08-31T22:20:49.842Z,3.70
2022-08-31T22:24:51.730Z,3.23
2022-08-31T22:28:53.621Z,3.77
2022-08-31T22:32:55.376Z,4.40
2022-08-31T22:36:57.273Z,4.13
2022-08-31T22:41:07.566Z,4.73
2022-08-31T22:45:10.096Z,4.50
2022-08-31T22:49:12.224Z,4.30
2022-08-31T22:53:15.035Z,4.33
2022-08-31T22:57:17.241Z,3.83
2022-08-31T23:01:27.924Z,4.00
2022-08-31T23:05:30.324Z,4.10
2022-08-31T23:09:33.743Z,4.03
2022-08-31T23:13:55.446Z,4.20
2022-08-31T23:17:57.686Z,3.90
2022-08-31T23:21:59.893Z,4.40
2022-08-31T23:26:08.996Z,4.00
2022-08-31T23:30:12.864Z,3.87
2022-08-31T23:34:15.228Z,5.93
2022-08-31T23:38:17.074Z,4.77
2022-08-31T23:42:19.757Z,4.13
2022-08-31T23:46:23.821Z,5.10
2022-08-31T23:50:25.791Z,5.07
2022-08-31T23:54:28.708Z,4.90
2022-08-31T23:58:32.015Z,4.87
